Time;durP1;ratioP1;P1;durP2;ratioP2;P2;SDS_P1;SDS_P2;PMS_P1;PMS_P2;Temp;Humidity;BMP_temperature;BMP_pressure;BME280_temperature;BME280_humidity;BME280_pressure;Samples;Min_cycle;Max_cycle;Signal;HPM_P1;HPM_P2
2023/06/02 00:01:00;;;;;;;5.67;3.60;;;11.10;99.90;;;;;;5135405;27;20210;-44
2023/06/02 00:03:29;;;;;;;6.67;3.80;;;11.10;99.90;;;;;;5135745;27;20224;-42
2023/06/02 00:05:57;;;;;;;9.60;3.83;;;11.20;99.90;;;;;;5135322;27;20178;-43
2023/06/02 00:08:23;;;;;;;7.93;3.90;;;11.20;99.90;;;;;;5135571;27;20231;-42
2023/06/02 00:10:48;;;;;;;8.03;4.20;;;11.30;99.90;;;;;;5135263;27;20643;-43
2023/06/02 00:13:14;;;;;;;5.80;3.40;;;11.30;99.90;;;;;;5116759;27;20241;-43
2023/06/02 00:15:40;;;;;;;9.57;3.60;;;11.30;99.90;;;;;;5135264;27;20205;-43
2023/06/02 00:18:07;;;;;;;9.60;3.33;;;11.40;99.90;;;;;;5116819;27;20664;-40
2023/06/02 00:20:33;;;;;;;6.83;3.30;;;11.40;99.90;;;;;;5135028;27;20205;-44
2023/06/02 00:23:01;;;;;;;8.43;3.60;;;11.40;99.90;;;;;;5134996;27;20174;-42
2023/06/02 00:25:27;;;;;;;11.23;3.50;;;11.50;99.90;;;;;;5135103;27;20192;-41
2023/06/02 00:27:53;;;;;;;6.97;3.10;;;11.50;99.90;;;;;;5134987;27;20177;-44
2023/06/02 00:30:18;;;;;;;6.00;3.30;;;11.50;99.90;;;;;;5134938;27;20552;-43
2023/06/02 00:32:44;;;;;;;9.40;3.67;;;11.60;99.90;;;;;;5134934;27;20189;-45
2023/06/02 00:35:09;;;;;;;9.30;3.60;;;11.60;99.90;;;;;;5135017;27;20192;-45
2023/06/02 00:37:35;;;;;;;7.40;3.03;;;11.60;99.90;;;;;;5134841;27;20177;-42
2023/06/02 00:40:01;;;;;;;6.23;3.20;;;11.70;99.90;;;;;;5134956;27;20240;-45
2023/06/02 00:42:26;;;;;;;6.93;3.43;;;11.70;99.90;;;;;;5135042;27;20174;-42
2023/06/02 00:44:52;;;;;;;4.37;3.07;;;11.70;99.90;;;;;;5134697;27;20189;-44
2023/06/02 00:47:17;;;;;;;4.97;3.67;;;11.70;99.90;;;;;;5134814;27;20308;-45
2023/06/02 00:49:43;;;;;;;5.20;3.17;;;11.80;99.90;;;;;;5134978;27;20208;-42
2023/06/02 00:52:09;;;;;;;3.70;3.03;;;11.70;99.90;;;;;;5135549;27;20193;-43
2023/06/02 00:54:35;;;;;;;4.77;3.20;;;11.70;99.90;;;;;;5134566;27;20198;-45
2023/06/02 00:57:01;;;;;;;4.93;3.33;;;11.70;99.90;;;;;;5134518;27;20681;-43
2023/06/02 00:59:27;;;;;;;5.80;3.53;;;11.80;99.90;;;;;;5134511;27;20201;-42
2023/06/02 01:01:54;;;;;;;3.77;2.90;;;11.80;99.90;;;;;;5134807;27;20665;-44
2023/06/02 01:04:20;;;;;;;6.43;3.00;;;11.80;99.90;;;;;;5134379;27;20197;-40
2023/06/02 01:06:48;;;;;;;4.07;3.03;;;11.80;99.90;;;;;;5134502;27;20177;-42
2023/06/02 01:09:19;;;;;;;6.70;3.67;;;11.80;99.90;;;;;;5134441;27;20650;-45
2023/06/02 01:11:47;;;;;;;6.63;3.60;;;11.80;99.90;;;;;;5134604;28;20154;-44
2023/06/02 01:14:13;;;;;;;5.80;3.60;;;11.80;99.90;;;;;;5115835;28;20677;-43
2023/06/02 01:16:39;;;;;;;6.43;3.70;;;11.80;99.90;;;;;;5134670;28;20181;-44
2023/06/02 01:19:13;;;;;;;8.80;3.83;;;11.80;99.90;;;;;;5134642;28;20169;-43
2023/06/02 01:21:40;;;;;;;4.10;3.40;;;11.70;99.90;;;;;;5135872;28;20637;-45
2023/06/02 01:24:06;;;;;;;5.77;3.80;;;11.70;99.90;;;;;;5135509;28;20254;-45
2023/06/02 01:26:34;;;;;;;4.73;3.60;;;11.70;99.90;;;;;;5134345;28;20253;-45
2023/06/02 01:29:04;;;;;;;5.87;3.10;;;11.70;99.90;;;;;;5134188;28;20664;-45
2023/06/02 01:31:35;;;;;;;8.43;3.73;;;11.70;99.90;;;;;;5134647;28;20207;-42
2023/06/02 01:34:24;;;;;;;6.43;3.37;;;11.70;99.90;;;;;;5134198;28;20213;-47
2023/06/02 01:36:54;;;;;;;5.83;3.70;;;11.70;99.90;;;;;;5115881;28;20169;-48
2023/06/02 01:39:22;;;;;;;4.17;3.03;;;11.70;99.90;;;;;;5134060;28;20246;-48
2023/06/02 01:41:49;;;;;;;6.70;3.27;;;11.70;99.90;;;;;;5134364;28;20182;-46
2023/06/02 01:44:15;;;;;;;6.83;3.27;;;11.60;99.90;;;;;;5133948;28;20796;-45
2023/06/02 01:46:41;;;;;;;5.10;3.20;;;11.70;99.90;;;;;;5134106;28;20261;-49
2023/06/02 01:49:15;;;;;;;7.00;2.90;;;11.60;99.90;;;;;;5134301;27;20545;-47
2023/06/02 01:51:41;;;;;;;7.37;3.17;;;11.60;99.90;;;;;;5137984;27;20200;-46
2023/06/02 01:54:06;;;;;;;6.90;3.30;;;11.60;99.90;;;;;;5137993;27;20198;-46
2023/06/02 01:56:32;;;;;;;4.43;3.03;;;11.50;99.90;;;;;;5138165;27;20178;-46
2023/06/02 01:58:58;;;;;;;7.17;3.20;;;11.50;99.90;;;;;;5137889;27;20174;-47
2023/06/02 02:01:24;;;;;;;5.83;3.70;;;11.50;99.90;;;;;;5137996;27;20201;-47
2023/06/02 02:03:50;;;;;;;8.33;3.50;;;11.50;99.90;;;;;;5137620;27;20189;-46
2023/06/02 02:06:17;;;;;;;6.70;2.90;;;11.40;99.90;;;;;;5137957;27;20254;-46
2023/06/02 02:08:42;;;;;;;4.97;3.27;;;11.30;99.90;;;;;;5119758;27;20216;-48
2023/06/02 02:11:08;;;;;;;7.83;3.57;;;11.40;99.90;;;;;;5137654;27;20208;-45
2023/06/02 02:13:33;;;;;;;7.53;3.27;;;11.30;99.90;;;;;;5137417;27;20205;-48
2023/06/02 02:15:59;;;;;;;6.33;3.40;;;11.30;99.90;;;;;;5137499;27;20181;-48
2023/06/02 02:18:25;;;;;;;8.70;3.57;;;11.20;99.90;;;;;;5137688;27;20212;-46
2023/06/02 02:20:50;;;;;;;6.70;3.40;;;11.30;99.90;;;;;;5137616;27;20209;-48
2023/06/02 02:23:16;;;;;;;7.77;4.20;;;11.20;99.90;;;;;;5118930;27;20200;-48
2023/06/02 02:25:41;;;;;;;11.00;4.03;;;11.20;99.90;;;;;;5137598;27;20638;-48
2023/06/02 02:28:07;;;;;;;8.13;4.03;;;11.20;99.90;;;;;;5137854;27;20200;-47
2023/06/02 02:30:32;;;;;;;6.30;4.40;;;11.20;99.90;;;;;;5137232;27;20177;-45
2023/06/02 02:33:01;;;;;;;10.13;4.00;;;11.20;99.90;;;;;;5137237;27;20196;-47
2023/06/02 02:35:27;;;;;;;6.27;4.10;;;11.10;99.90;;;;;;5137130;27;20181;-47
2023/06/02 02:37:53;;;;;;;8.50;3.57;;;11.20;99.90;;;;;;5137732;27;20185;-47
2023/06/02 02:40:18;;;;;;;7.13;4.27;;;11.10;99.90;;;;;;5136914;27;20595;-47
2023/06/02 02:42:44;;;;;;;8.17;4.07;;;11.10;99.90;;;;;;5137044;27;20186;-47
2023/06/02 02:45:10;;;;;;;6.83;3.97;;;11.10;99.90;;;;;;5136961;27;20657;-47
2023/06/02 02:47:36;;;;;;;7.87;4.40;;;11.10;99.90;;;;;;5137120;27;20567;-47
2023/06/02 02:50:02;;;;;;;7.33;4.10;;;11.10;99.90;;;;;;5136830;27;20183;-46
2023/06/02 02:52:28;;;;;;;7.60;3.97;;;11.00;99.90;;;;;;5136735;27;20582;-47
2023/06/02 02:54:53;;;;;;;9.50;4.37;;;11.00;99.90;;;;;;5118342;27;20204;-47
2023/06/02 02:57:19;;;;;;;6.40;3.93;;;11.00;99.90;;;;;;5136769;27;20174;-48
2023/06/02 02:59:45;;;;;;;7.47;4.03;;;11.00;99.90;;;;;;5136796;27;20673;-45
2023/06/02 03:02:11;;;;;;;10.93;4.10;;;11.00;99.90;;;;;;5135640;27;20182;-48
2023/06/02 03:04:37;;;;;;;8.17;4.20;;;10.90;99.90;;;;;;5136483;27;20193;-48
2023/06/02 03:07:04;;;;;;;11.03;4.30;;;10.90;99.90;;;;;;5118195;27;20306;-46
2023/06/02 03:09:29;;;;;;;8.37;4.03;;;10.90;99.90;;;;;;5136789;27;20181;-48
2023/06/02 03:11:57;;;;;;;9.00;4.30;;;10.90;99.90;;;;;;5136336;27;20185;-49
2023/06/02 03:14:24;;;;;;;7.40;3.93;;;10.90;99.90;;;;;;5136532;27;20215;-45
2023/06/02 03:16:50;;;;;;;8.70;3.90;;;10.90;99.90;;;;;;5137091;27;20311;-46
2023/06/02 03:19:16;;;;;;;9.67;4.13;;;10.90;99.90;;;;;;5136418;27;20266;-48
2023/06/02 03:21:42;;;;;;;6.13;3.63;;;10.90;99.90;;;;;;5136279;27;20177;-47
2023/06/02 03:24:13;;;;;;;8.07;3.80;;;10.90;99.90;;;;;;5136138;27;20197;-48
2023/06/02 03:26:40;;;;;;;8.07;4.10;;;10.90;99.90;;;;;;5135983;27;20260;-47
2023/06/02 03:29:07;;;;;;;9.07;3.83;;;10.90;99.90;;;;;;5136328;27;20188;-46
2023/06/02 03:31:32;;;;;;;10.77;3.60;;;10.90;99.90;;;;;;5136074;27;20178;-48
2023/06/02 03:33:58;;;;;;;7.17;3.07;;;10.90;99.90;;;;;;5136040;27;20565;-47
2023/06/02 03:36:23;;;;;;;8.13;3.80;;;10.90;99.90;;;;;;5135968;27;20616;-47
2023/06/02 03:38:49;;;;;;;7.47;4.40;;;10.90;99.90;;;;;;5135921;27;20185;-48
2023/06/02 03:41:14;;;;;;;10.13;3.93;;;10.80;99.90;;;;;;5135775;27;20247;-48
2023/06/02 03:43:40;;;;;;;8.63;3.83;;;10.80;99.90;;;;;;5136037;27;20215;-45
2023/06/02 03:46:06;;;;;;;10.13;3.63;;;10.80;99.90;;;;;;5136047;27;20579;-43
2023/06/02 03:48:31;;;;;;;9.13;3.43;;;10.80;99.90;;;;;;5135705;27;20177;-43
2023/06/02 03:50:57;;;;;;;10.50;4.37;;;10.80;99.90;;;;;;5135760;27;20253;-41
2023/06/02 03:53:23;;;;;;;11.87;4.33;;;10.80;99.90;;;;;;5135507;27;20245;-43
2023/06/02 03:55:49;;;;;;;8.63;4.37;;;10.80;99.90;;;;;;5135762;27;20263;-44
2023/06/02 03:58:14;;;;;;;8.60;4.03;;;10.80;99.90;;;;;;5117851;27;20177;-45
2023/06/02 04:00:41;;;;;;;10.17;4.07;;;10.70;99.90;;;;;;5135600;27;20209;-43
2023/06/02 04:03:09;;;;;;;9.80;4.00;;;10.80;99.90;;;;;;5135566;27;20224;-42
2023/06/02 04:05:34;;;;;;;11.63;3.63;;;10.80;99.90;;;;;;5135611;27;20187;-41
2023/06/02 04:08:00;;;;;;;9.53;3.93;;;10.70;99.90;;;;;;5135312;27;20260;-40
2023/06/02 04:10:28;;;;;;;10.57;3.47;;;10.60;99.90;;;;;;5135285;27;20658;-43
2023/06/02 04:12:53;;;;;;;8.93;3.97;;;10.70;99.90;;;;;;5134730;27;20645;-42
2023/06/02 04:15:19;;;;;;;10.80;3.80;;;10.60;99.90;;;;;;5135649;27;20177;-43
2023/06/02 04:17:44;;;;;;;9.20;3.80;;;10.60;99.90;;;;;;5135386;27;20629;-42
2023/06/02 04:20:12;;;;;;;8.23;3.77;;;10.60;99.90;;;;;;5135247;27;20213;-40
2023/06/02 04:22:37;;;;;;;6.50;3.30;;;10.60;99.90;;;;;;5134920;27;20646;-41
2023/06/02 04:25:04;;;;;;;7.37;3.67;;;10.70;99.90;;;;;;5135199;27;20197;-42
2023/06/02 04:27:29;;;;;;;8.63;2.67;;;10.60;99.90;;;;;;5134988;27;20230;-44
2023/06/02 04:29:55;;;;;;;5.70;2.80;;;10.60;99.90;;;;;;5135470;27;20566;-44
2023/06/02 04:32:20;;;;;;;10.07;3.73;;;10.60;99.90;;;;;;5134682;27;20185;-43
2023/06/02 04:34:46;;;;;;;10.37;3.70;;;10.60;99.90;;;;;;5134774;27;20279;-43
2023/06/02 04:37:12;;;;;;;19.00;4.20;;;10.60;99.90;;;;;;5135021;27;20189;-43
2023/06/02 04:39:37;;;;;;;12.07;4.27;;;10.60;99.90;;;;;;5134679;27;20318;-43
2023/06/02 04:42:03;;;;;;;10.47;5.03;;;10.60;99.90;;;;;;5134678;27;20233;-41
2023/06/02 04:44:29;;;;;;;11.03;4.10;;;10.60;99.90;;;;;;5135221;27;20198;-42
2023/06/02 04:46:55;;;;;;;8.20;4.53;;;10.60;99.90;;;;;;5134959;27;20177;-44
2023/06/02 04:49:21;;;;;;;14.53;4.90;;;10.70;99.90;;;;;;5134736;27;20260;-43
2023/06/02 04:51:46;;;;;;;10.83;5.00;;;10.60;99.90;;;;;;5134877;27;20176;-38
2023/06/02 04:54:15;;;;;;;16.83;5.23;;;10.60;99.90;;;;;;5134469;27;20595;-41
2023/06/02 04:56:40;;;;;;;16.03;6.03;;;10.60;99.90;;;;;;5134701;27;20663;-42
2023/06/02 04:59:06;;;;;;;13.70;5.93;;;10.70;99.90;;;;;;5134655;27;20185;-42
2023/06/02 05:01:33;;;;;;;14.77;6.07;;;10.60;99.90;;;;;;5134717;27;20205;-43
2023/06/02 05:03:58;;;;;;;15.73;6.23;;;10.70;99.90;;;;;;5134631;27;20200;-42
2023/06/02 05:06:24;;;;;;;12.53;5.63;;;10.70;99.90;;;;;;5134359;27;20256;-41
2023/06/02 05:08:50;;;;;;;12.57;5.20;;;10.60;99.90;;;;;;5134674;27;20165;-42
2023/06/02 05:11:16;;;;;;;14.77;4.70;;;10.70;99.90;;;;;;5134568;27;20189;-44
2023/06/02 05:13:44;;;;;;;11.87;4.30;;;10.70;99.90;;;;;;5134370;28;20201;-41
2023/06/02 05:16:09;;;;;;;14.07;4.40;;;10.70;99.90;;;;;;5134532;28;20202;-44
2023/06/02 05:18:35;;;;;;;9.70;3.70;;;10.70;99.90;;;;;;5134520;28;20480;-42
2023/06/02 05:21:01;;;;;;;16.17;4.47;;;10.70;99.90;;;;;;5134378;28;20205;-41
2023/06/02 05:23:26;;;;;;;13.83;4.27;;;10.70;99.90;;;;;;5134418;27;20194;-42
2023/06/02 05:25:52;;;;;;;15.30;4.90;;;10.80;99.90;;;;;;5137384;27;20177;-42
2023/06/02 05:28:18;;;;;;;7.53;3.47;;;10.80;99.90;;;;;;5139438;27;20173;-43
2023/06/02 05:30:43;;;;;;;11.87;4.00;;;10.80;99.90;;;;;;5138464;27;20191;-45
2023/06/02 05:33:09;;;;;;;10.27;3.77;;;10.80;99.90;;;;;;5138326;27;20288;-42
2023/06/02 05:35:34;;;;;;;10.63;4.30;;;10.80;99.90;;;;;;5138537;27;20276;-43
2023/06/02 05:38:00;;;;;;;9.33;4.20;;;10.90;99.90;;;;;;5138623;27;20234;-44
2023/06/02 05:40:26;;;;;;;9.90;4.90;;;10.90;99.90;;;;;;5138355;27;20657;-43
2023/06/02 05:42:51;;;;;;;11.80;4.07;;;10.90;99.90;;;;;;5138391;27;20173;-45
2023/06/02 05:45:17;;;;;;;13.33;3.93;;;10.90;99.90;;;;;;5138494;27;20182;-43
2023/06/02 05:47:43;;;;;;;12.43;3.67;;;10.90;99.90;;;;;;5138179;27;20239;-42
2023/06/02 05:50:10;;;;;;;7.07;4.03;;;10.90;99.90;;;;;;5138270;27;20589;-41
2023/06/02 05:52:36;;;;;;;13.87;4.23;;;10.90;99.90;;;;;;5137957;27;20576;-42
2023/06/02 05:55:01;;;;;;;14.83;4.60;;;10.90;99.90;;;;;;5137874;27;20212;-43
2023/06/02 05:57:27;;;;;;;10.23;4.73;;;10.90;99.90;;;;;;5138000;27;20190;-41
2023/06/02 05:59:52;;;;;;;15.83;4.70;;;10.90;99.90;;;;;;5137829;27;20712;-42
2023/06/02 06:02:18;;;;;;;14.83;4.37;;;10.90;99.90;;;;;;5138286;27;20204;-43
2023/06/02 06:04:43;;;;;;;11.00;4.80;;;10.90;99.90;;;;;;5137951;27;20200;-42
2023/06/02 06:07:09;;;;;;;13.00;4.80;;;10.90;99.90;;;;;;5138120;27;20169;-43
2023/06/02 06:09:35;;;;;;;21.90;4.90;;;10.90;99.90;;;;;;5137696;27;20181;-44
2023/06/02 06:12:00;;;;;;;14.57;5.37;;;11.00;99.90;;;;;;5138127;27;20182;-44
2023/06/02 06:14:26;;;;;;;10.33;4.23;;;11.00;99.90;;;;;;5137690;27;20530;-41
2023/06/02 06:16:51;;;;;;;15.50;4.40;;;11.00;99.90;;;;;;5137548;27;20180;-43
2023/06/02 06:19:18;;;;;;;14.97;4.10;;;11.00;99.90;;;;;;5137495;27;20189;-40
2023/06/02 06:21:43;;;;;;;14.57;4.30;;;11.00;99.90;;;;;;5119159;27;20184;-43
2023/06/02 06:24:09;;;;;;;11.20;3.80;;;11.10;99.90;;;;;;5119050;27;20292;-43
2023/06/02 06:26:35;;;;;;;11.57;3.70;;;11.10;99.90;;;;;;5119795;27;20209;-43
2023/06/02 06:29:01;;;;;;;10.97;4.07;;;11.10;99.90;;;;;;5137563;27;20260;-43
2023/06/02 06:31:26;;;;;;;7.93;4.03;;;11.10;99.90;;;;;;5137688;27;20189;-44
2023/06/02 06:33:52;;;;;;;10.23;4.13;;;11.10;99.90;;;;;;5137178;27;20220;-40
2023/06/02 06:36:18;;;;;;;9.37;3.90;;;11.20;99.90;;;;;;5137606;27;20307;-42
2023/06/02 06:38:44;;;;;;;15.10;4.40;;;11.20;99.90;;;;;;5137270;27;20186;-45
2023/06/02 06:41:09;;;;;;;13.00;3.97;;;11.20;99.90;;;;;;5137284;27;20208;-44
2023/06/02 06:43:35;;;;;;;12.77;3.90;;;11.30;99.90;;;;;;5137535;27;20284;-44
2023/06/02 06:46:01;;;;;;;11.90;4.40;;;11.30;99.90;;;;;;5137168;27;20254;-42
2023/06/02 06:48:27;;;;;;;11.13;4.50;;;11.30;99.90;;;;;;5137189;27;20186;-44
2023/06/02 06:50:53;;;;;;;11.87;4.33;;;11.40;99.90;;;;;;5137248;27;20177;-45
2023/06/02 06:53:18;;;;;;;8.47;3.50;;;11.50;99.90;;;;;;5136783;27;20602;-42
2023/06/02 06:55:45;;;;;;;14.90;4.00;;;11.50;99.90;;;;;;5136906;27;20186;-42
2023/06/02 06:58:10;;;;;;;9.80;4.10;;;11.50;99.90;;;;;;5136939;27;20186;-43
2023/06/02 07:00:36;;;;;;;13.30;4.33;;;11.50;99.90;;;;;;5136690;27;20207;-43
2023/06/02 07:03:02;;;;;;;20.23;4.20;;;11.50;99.90;;;;;;5136910;27;20173;-42
2023/06/02 07:05:30;;;;;;;12.47;4.57;;;11.60;99.90;;;;;;5136947;27;20211;-41
2023/06/02 07:07:56;;;;;;;16.57;4.70;;;11.60;99.90;;;;;;5136757;27;20282;-42
2023/06/02 07:10:22;;;;;;;14.50;4.97;;;11.60;99.90;;;;;;5136410;27;20198;-43
2023/06/02 07:12:48;;;;;;;11.40;4.07;;;11.60;99.90;;;;;;5136443;27;20178;-42
2023/06/02 07:15:13;;;;;;;11.27;3.83;;;11.60;99.90;;;;;;5118081;27;20196;-44
2023/06/02 07:17:40;;;;;;;14.10;4.87;;;11.60;99.90;;;;;;5136314;27;20623;-42
2023/06/02 07:20:10;;;;;;;11.03;4.53;;;11.60;99.90;;;;;;5136312;27;20205;-43
2023/06/02 07:22:36;;;;;;;10.80;4.60;;;11.60;99.90;;;;;;5117824;27;20227;-44
2023/06/02 07:25:03;;;;;;;12.90;5.23;;;11.60;99.90;;;;;;5136807;27;20196;-40
2023/06/02 07:27:29;;;;;;;10.13;4.67;;;11.70;99.90;;;;;;5136383;27;20180;-42
2023/06/02 07:29:55;;;;;;;13.40;4.73;;;11.70;99.90;;;;;;5136141;27;20688;-43
2023/06/02 07:32:20;;;;;;;12.90;5.00;;;11.80;99.90;;;;;;5136188;27;20250;-42
2023/06/02 07:34:46;;;;;;;12.87;5.00;;;11.90;99.90;;;;;;5136667;27;20649;-44
2023/06/02 07:37:12;;;;;;;15.40;4.97;;;12.00;99.90;;;;;;5136039;27;20165;-41
2023/06/02 07:39:38;;;;;;;9.23;3.90;;;12.10;99.90;;;;;;5135927;27;20288;-44
2023/06/02 07:42:03;;;;;;;13.10;4.57;;;12.10;99.90;;;;;;5136196;27;20178;-44
2023/06/02 07:44:29;;;;;;;9.13;4.23;;;12.10;99.90;;;;;;5135755;27;20216;-42
2023/06/02 07:46:55;;;;;;;9.63;4.37;;;12.20;99.90;;;;;;5135877;27;20264;-44
2023/06/02 07:49:20;;;;;;;10.27;4.17;;;12.20;99.90;;;;;;5135527;27;20545;-41
2023/06/02 07:51:46;;;;;;;12.87;4.57;;;12.10;99.90;;;;;;5135689;27;20234;-42
2023/06/02 07:54:11;;;;;;;12.97;4.00;;;12.20;99.90;;;;;;5135654;27;20193;-45
2023/06/02 07:56:37;;;;;;;9.90;4.40;;;12.30;99.90;;;;;;5135662;27;20184;-45
2023/06/02 07:59:03;;;;;;;11.03;4.30;;;12.40;99.90;;;;;;5135576;27;20256;-45
2023/06/02 08:01:28;;;;;;;12.00;4.47;;;12.50;99.90;;;;;;5116978;27;20201;-42
2023/06/02 08:03:54;;;;;;;15.73;4.57;;;12.50;99.90;;;;;;5135327;27;20253;-44
2023/06/02 08:06:20;;;;;;;10.53;4.83;;;12.50;99.90;;;;;;5135674;27;20188;-44
2023/06/02 08:08:45;;;;;;;11.87;5.17;;;12.40;99.90;;;;;;5135937;27;20575;-46
2023/06/02 08:11:14;;;;;;;10.83;5.57;;;12.50;99.90;;;;;;5135332;27;20214;-44
2023/06/02 08:13:40;;;;;;;20.37;8.20;;;12.50;99.90;;;;;;5135132;27;20285;-44
2023/06/02 08:16:06;;;;;;;18.73;9.43;;;12.60;99.90;;;;;;5116925;27;20223;-43
2023/06/02 08:18:31;;;;;;;18.33;10.37;;;12.60;99.90;;;;;;5135553;27;20178;-42
2023/06/02 08:20:57;;;;;;;16.20;10.13;;;12.60;99.90;;;;;;5135725;27;20281;-44
2023/06/02 08:23:23;;;;;;;17.17;9.63;;;12.50;99.90;;;;;;5135324;27;20564;-44
2023/06/02 08:25:48;;;;;;;17.40;9.47;;;12.50;99.90;;;;;;5135114;27;20178;-42
2023/06/02 08:28:14;;;;;;;19.80;11.00;;;12.60;99.90;;;;;;5136144;27;20192;-44
2023/06/02 08:30:42;;;;;;;17.30;10.47;;;12.70;99.90;;;;;;5135528;27;20190;-44
2023/06/02 08:33:08;;;;;;;16.57;10.57;;;12.70;99.90;;;;;;5134878;27;20224;-43
2023/06/02 08:35:36;;;;;;;20.23;10.63;;;12.70;99.90;;;;;;5134820;27;20182;-44
2023/06/02 08:38:03;;;;;;;17.67;11.77;;;12.80;99.90;;;;;;5134810;27;20177;-45
2023/06/02 08:40:36;;;;;;;20.10;12.30;;;12.80;99.90;;;;;;5135192;27;20698;-49
2023/06/02 08:43:09;;;;;;;23.07;12.07;;;12.90;99.90;;;;;;5135095;27;20170;-49
2023/06/02 08:45:35;;;;;;;15.57;11.23;;;12.90;99.90;;;;;;5135092;27;20153;-43
2023/06/02 08:48:05;;;;;;;18.27;12.90;;;13.00;99.90;;;;;;5134799;27;20234;-42
2023/06/02 08:50:33;;;;;;;19.70;12.37;;;13.00;99.90;;;;;;5135185;27;20189;-43
2023/06/02 08:53:03;;;;;;;16.80;11.93;;;13.00;99.90;;;;;;5134835;27;20180;-43
2023/06/02 08:55:29;;;;;;;17.10;11.83;;;13.00;99.90;;;;;;5135434;27;20177;-42
2023/06/02 08:57:55;;;;;;;20.10;12.47;;;13.10;99.90;;;;;;5134489;27;20200;-42
2023/06/02 09:00:21;;;;;;;16.27;11.07;;;13.10;99.90;;;;;;5133437;27;20201;-42
2023/06/02 09:02:47;;;;;;;21.83;10.73;;;13.10;99.90;;;;;;5134660;27;20521;-41
2023/06/02 09:05:16;;;;;;;18.77;10.73;;;13.10;99.90;;;;;;5134445;27;20260;-43
2023/06/02 09:07:43;;;;;;;19.00;10.07;;;13.10;99.90;;;;;;5134712;27;20704;-43
2023/06/02 09:10:09;;;;;;;14.33;11.13;;;13.10;99.90;;;;;;5134658;27;20192;-44
2023/06/02 09:12:47;;;;;;;20.57;11.80;;;13.10;99.90;;;;;;5116288;28;20181;-43
2023/06/02 09:15:13;;;;;;;16.57;12.03;;;13.20;99.90;;;;;;5134649;28;20222;-45
2023/06/02 09:17:39;;;;;;;15.43;10.80;;;13.30;99.90;;;;;;5134559;28;20185;-45
2023/06/02 09:20:11;;;;;;;16.73;11.30;;;13.40;99.90;;;;;;5134507;28;20564;-44
2023/06/02 09:22:54;;;;;;;15.87;10.60;;;13.40;99.90;;;;;;5134551;28;20157;-43
2023/06/02 09:25:30;;;;;;;19.17;10.63;;;13.50;99.90;;;;;;5134494;28;20262;-42
2023/06/02 09:28:00;;;;;;;16.57;11.00;;;13.60;99.90;;;;;;5134410;28;20178;-42
2023/06/02 09:30:27;;;;;;;12.40;9.37;;;13.80;99.90;;;;;;5134797;28;20162;-44
2023/06/02 09:33:04;;;;;;;16.73;9.37;;;13.80;99.90;;;;;;5134080;28;20211;-44
2023/06/02 09:35:36;;;;;;;20.33;9.80;;;13.80;99.90;;;;;;5134185;28;20233;-43
2023/06/02 09:38:07;;;;;;;16.80;8.63;;;13.70;99.90;;;;;;5134043;28;20668;-44
2023/06/02 09:40:34;;;;;;;16.10;9.60;;;13.80;99.90;;;;;;5134362;28;20202;-45
2023/06/02 09:43:08;;;;;;;19.47;10.37;;;14.00;99.90;;;;;;5134278;28;20173;-43
2023/06/02 09:45:54;;;;;;;17.60;11.47;;;14.10;99.90;;;;;;5134334;28;20176;-44
2023/06/02 09:48:24;;;;;;;15.50;10.93;;;14.10;99.90;;;;;;5119523;28;20189;-45
2023/06/02 09:50:50;;;;;;;17.07;11.10;;;14.10;99.90;;;;;;5134820;28;20518;-44
2023/06/02 09:53:17;;;;;;;16.20;12.90;;;14.10;99.90;;;;;;5134148;28;20201;-46
2023/06/02 09:55:45;;;;;;;21.27;13.70;;;14.20;99.90;;;;;;5134232;28;20201;-42
2023/06/02 09:58:12;;;;;;;19.07;13.47;;;14.40;99.90;;;;;;5133825;28;20656;-45
2023/06/02 10:00:39;;;;;;;20.20;15.30;;;14.50;99.90;;;;;;5133772;28;20250;-44
2023/06/02 10:03:06;;;;;;;27.40;15.70;;;14.60;99.90;;;;;;5134064;28;20197;-43
2023/06/02 10:05:32;;;;;;;22.80;14.67;;;14.50;99.90;;;;;;5133785;28;20174;-44
2023/06/02 10:08:13;;;;;;;19.57;15.37;;;14.50;99.90;;;;;;5133805;28;20176;-45
2023/06/02 10:10:45;;;;;;;23.93;15.53;;;14.50;99.90;;;;;;5134971;27;20165;-44
2023/06/02 10:13:35;;;;;;;25.53;14.83;;;14.50;99.90;;;;;;5137632;27;20197;-44
2023/06/02 10:16:10;;;;;;;23.83;15.80;;;14.70;99.90;;;;;;5138205;27;20244;-43
2023/06/02 10:19:14;;;;;;;23.57;15.67;;;14.90;99.90;;;;;;5138136;27;20202;-44
2023/06/02 10:22:17;;;;;;;19.63;15.77;;;14.90;99.90;;;;;;5137544;27;20195;-45
2023/06/02 10:25:01;;;;;;;21.10;14.17;;;14.80;99.90;;;;;;5137322;27;20245;-46
2023/06/02 10:27:36;;;;;;;21.10;15.27;;;14.80;99.90;;;;;;5137667;27;20166;-46
2023/06/02 10:30:02;;;;;;;20.60;13.10;;;14.90;99.90;;;;;;5137583;27;20558;-45
2023/06/02 10:32:33;;;;;;;19.07;12.90;;;15.10;99.90;;;;;;5137568;27;20205;-45
2023/06/02 10:35:00;;;;;;;17.73;11.53;;;15.20;99.90;;;;;;5137434;27;20204;-44
2023/06/02 10:37:26;;;;;;;16.20;11.53;;;15.30;99.90;;;;;;5138250;27;20193;-43
2023/06/02 10:39:56;;;;;;;14.73;11.67;;;15.40;99.90;;;;;;5136991;27;20578;-45
2023/06/02 10:42:24;;;;;;;14.73;9.80;;;15.40;99.90;;;;;;5138632;27;20641;-51
2023/06/02 10:44:52;;;;;;;14.93;10.00;;;15.50;99.90;;;;;;5139977;27;20209;-44
2023/06/02 10:47:17;;;;;;;12.50;9.07;;;15.60;99.90;;;;;;5137241;27;20178;-46
2023/06/02 10:50:04;;;;;;;11.93;8.30;;;15.70;99.90;;;;;;5136969;27;20514;-46
2023/06/02 10:52:32;;;;;;;12.67;8.50;;;15.50;99.90;;;;;;5137387;27;20527;-44
2023/06/02 10:55:07;;;;;;;13.37;8.13;;;15.60;99.90;;;;;;5136991;27;20197;-45
2023/06/02 10:57:55;;;;;;;16.20;9.00;;;15.50;99.90;;;;;;5137059;27;20169;-45
2023/06/02 11:00:32;;;;;;;11.17;8.70;;;15.60;99.90;;;;;;5136912;27;20201;-45
2023/06/02 11:03:10;;;;;;;14.07;9.03;;;15.60;99.90;;;;;;5136883;27;20204;-45
2023/06/02 11:05:36;;;;;;;12.83;9.17;;;15.70;99.90;;;;;;5136705;27;20169;-46
2023/06/02 11:08:23;;;;;;;12.87;8.23;;;15.80;99.90;;;;;;5136601;27;20169;-47
2023/06/02 11:10:56;;;;;;;12.37;8.30;;;16.00;99.90;;;;;;5137080;27;20223;-45
2023/06/02 11:13:26;;;;;;;12.07;8.13;;;16.10;99.90;;;;;;5136616;27;20601;-45
2023/06/02 11:15:58;;;;;;;15.93;8.17;;;16.20;99.90;;;;;;5136386;27;20185;-45
2023/06/02 11:18:25;;;;;;;13.13;7.27;;;16.40;99.90;;;;;;5136668;27;20189;-45
2023/06/02 11:20:53;;;;;;;16.87;8.63;;;16.80;99.90;;;;;;5136295;27;20250;-45
2023/06/02 11:23:19;;;;;;;14.87;8.17;;;16.90;99.90;;;;;;5135182;27;20689;-45
2023/06/02 11:25:46;;;;;;;12.17;7.20;;;16.90;99.90;;;;;;5136516;27;20174;-45
2023/06/02 11:28:21;;;;;;;12.47;7.77;;;16.80;99.90;;;;;;5136205;27;20177;-46
2023/06/02 11:30:49;;;;;;;11.77;7.23;;;16.70;99.90;;;;;;5136050;27;20212;-45
2023/06/02 11:33:15;;;;;;;11.00;7.03;;;16.60;99.90;;;;;;5136043;27;20210;-46
2023/06/02 11:35:40;;;;;;;10.10;7.47;;;16.80;99.90;;;;;;5136273;27;20185;-45
2023/06/02 11:38:11;;;;;;;12.43;7.23;;;16.80;99.90;;;;;;5136064;27;20176;-46
2023/06/02 11:40:37;;;;;;;11.93;8.40;;;16.90;99.90;;;;;;5136268;27;20262;-46
2023/06/02 11:43:03;;;;;;;9.90;6.60;;;17.10;99.90;;;;;;5135895;27;20170;-45
2023/06/02 11:45:29;;;;;;;23.93;7.77;;;17.20;99.90;;;;;;5135829;27;20166;-45
2023/06/02 11:48:10;;;;;;;15.50;7.77;;;17.20;99.90;;;;;;5136402;27;20210;-46
2023/06/02 11:50:36;;;;;;;14.97;8.17;;;17.20;99.90;;;;;;5136080;27;20162;-46
2023/06/02 11:53:02;;;;;;;16.23;7.47;;;17.10;99.90;;;;;;5135971;27;20177;-44
2023/06/02 11:55:32;;;;;;;8.13;6.60;;;17.20;99.90;;;;;;5136240;27;20170;-45
2023/06/02 11:58:22;;;;;;;11.63;6.87;;;17.40;99.90;;;;;;5135533;27;20220;-45
2023/06/02 12:00:51;;;;;;;10.93;7.37;;;17.50;99.90;;;;;;5135479;27;20185;-45
2023/06/02 12:03:17;;;;;;;22.20;8.20;;;17.50;99.90;;;;;;5135423;27;20186;-46
2023/06/02 12:05:45;;;;;;;17.93;8.43;;;17.50;99.90;;;;;;5135641;27;20181;-45
2023/06/02 12:08:22;;;;;;;11.80;8.17;;;17.50;99.90;;;;;;5135355;27;20618;-45
2023/06/02 12:10:48;;;;;;;15.37;7.90;;;17.60;99.90;;;;;;5135634;27;20252;-45
2023/06/02 12:13:24;;;;;;;13.97;7.77;;;17.70;99.90;;;;;;5135388;27;20280;-46
2023/06/02 12:15:49;;;;;;;15.13;8.17;;;17.70;99.90;;;;;;5135216;27;20173;-46
2023/06/02 12:18:27;;;;;;;12.20;8.00;;;17.80;99.90;;;;;;5135146;27;20203;-46
2023/06/02 12:20:53;;;;;;;12.07;6.97;;;17.70;99.90;;;;;;5135334;27;20637;-45
2023/06/02 12:23:19;;;;;;;16.70;8.37;;;17.70;99.90;;;;;;5135245;27;20681;-46
2023/06/02 12:25:59;;;;;;;12.17;7.27;;;17.70;99.90;;;;;;5135376;27;20208;-45
2023/06/02 12:28:24;;;;;;;13.43;7.07;;;17.80;99.90;;;;;;5135255;27;20532;-46
2023/06/02 12:30:51;;;;;;;11.70;5.90;;;17.80;99.90;;;;;;5135214;27;20192;-46
2023/06/02 12:33:17;;;;;;;13.43;6.57;;;18.00;99.90;;;;;;5134565;27;20269;-46
2023/06/02 12:35:42;;;;;;;15.87;6.97;;;18.30;99.90;;;;;;5134873;27;20177;-44
2023/06/02 12:38:09;;;;;;;15.17;6.87;;;18.40;99.90;;;;;;5134871;27;20185;-46
2023/06/02 12:40:37;;;;;;;12.60;6.13;;;18.40;99.90;;;;;;5134641;27;20197;-46